createdAt,value
2018-12-14T00:00:05.615Z,-0.30
2018-12-14T00:01:04.813Z,-0.30
2018-12-14T00:02:04.940Z,-0.30
2018-12-14T00:03:05.092Z,-0.30
2018-12-14T00:04:07.682Z,-0.30
2018-12-14T00:05:04.678Z,-0.30
2018-12-14T00:06:04.838Z,-0.20
2018-12-14T00:07:07.410Z,-0.30
2018-12-14T00:08:07.834Z,-0.30
2018-12-14T00:09:04.937Z,-0.30
2018-12-14T00:10:05.081Z,-0.30
2018-12-14T00:11:07.816Z,-0.30
2018-12-14T00:12:04.752Z,-0.30
2018-12-14T00:13:07.348Z,-0.30
2018-12-14T00:14:05.399Z,-0.20
2018-12-14T00:15:05.553Z,-0.30
2018-12-14T00:16:04.695Z,-0.30
2018-12-14T00:17:04.813Z,-0.20
2018-12-14T00:18:04.962Z,-0.30
2018-12-14T00:19:05.090Z,-0.30
2018-12-14T00:20:07.842Z,-0.30
2018-12-14T00:21:04.937Z,-0.30
2018-12-14T00:22:07.787Z,-0.30
2018-12-14T00:23:04.800Z,-0.30
2018-12-14T00:24:04.938Z,-0.20
2018-12-14T00:25:05.076Z,-0.30
2018-12-14T00:26:05.234Z,-0.30
2018-12-14T00:27:05.471Z,-0.30
2018-12-14T00:28:05.675Z,-0.30
2018-12-14T00:29:05.090Z,-0.30
2018-12-14T00:30:05.312Z,-0.30
2018-12-14T00:31:08.177Z,-0.30
2018-12-14T00:32:05.223Z,-0.30
2018-12-14T00:33:04.840Z,-0.30
2018-12-14T00:34:07.550Z,-0.30
2018-12-14T00:35:08.097Z,-0.30
2018-12-14T00:36:05.011Z,-0.20
2018-12-14T00:37:05.110Z,-0.30
2018-12-14T00:38:05.295Z,-0.30
2018-12-14T00:39:05.566Z,-0.30
2018-12-14T00:40:04.891Z,-0.30
2018-12-14T00:41:05.056Z,-0.30
2018-12-14T00:42:05.194Z,-0.30
2018-12-14T00:43:05.446Z,-0.30
2018-12-14T00:44:05.593Z,-0.30
2018-12-14T00:45:04.759Z,-0.30
2018-12-14T00:46:04.951Z,-0.20
2018-12-14T00:47:05.101Z,-0.30
2018-12-14T00:48:05.173Z,-0.20
2018-12-14T00:49:07.990Z,-0.30
2018-12-14T00:50:04.996Z,-0.30
2018-12-14T00:51:07.626Z,-0.30
2018-12-14T00:52:05.679Z,-0.30
2018-12-14T00:53:04.817Z,-0.20
2018-12-14T00:54:05.015Z,-0.30
2018-12-14T00:55:07.971Z,-0.30
2018-12-14T00:56:04.966Z,-0.30
2018-12-14T00:57:05.085Z,-0.30
2018-12-14T00:58:07.733Z,-0.30
2018-12-14T00:59:04.756Z,-0.20
2018-12-14T01:00:04.967Z,-0.30
2018-12-14T01:01:05.216Z,-0.30
2018-12-14T01:02:05.348Z,-0.30
2018-12-14T01:03:05.519Z,-0.30
2018-12-14T01:04:05.608Z,-0.30
2018-12-14T01:05:07.221Z,-0.30
2018-12-14T01:06:05.158Z,-0.30
2018-12-14T01:07:05.307Z,-0.30
2018-12-14T01:08:05.484Z,-0.30
2018-12-14T01:09:08.199Z,-0.30
2018-12-14T01:10:07.646Z,-0.30
2018-12-14T01:11:05.614Z,-0.30
2018-12-14T01:12:04.777Z,-0.30
2018-12-14T01:13:04.970Z,-0.30
2018-12-14T01:14:12.806Z,-0.30
2018-12-14T01:15:04.867Z,-0.20
2018-12-14T01:16:04.997Z,-0.20
2018-12-14T01:17:07.738Z,-0.30
2018-12-14T01:18:04.781Z,-0.30
2018-12-14T01:19:04.943Z,-0.30
2018-12-14T01:20:10.276Z,-0.30
2018-12-14T01:21:05.327Z,-0.30
2018-12-14T01:22:07.996Z,-0.20
2018-12-14T01:23:04.950Z,-0.20
2018-12-14T01:24:07.696Z,-0.30
2018-12-14T01:25:04.732Z,-0.30
2018-12-14T01:26:07.392Z,-0.30
2018-12-14T01:27:08.029Z,-0.30
2018-12-14T01:28:04.984Z,-0.20
2018-12-14T01:29:05.120Z,-0.30
2018-12-14T01:30:05.280Z,-0.20
2018-12-14T01:31:05.440Z,-0.30
2018-12-14T01:32:05.541Z,-0.30
2018-12-14T01:33:04.901Z,-0.20
2018-12-14T01:34:05.038Z,-0.20
2018-12-14T01:35:07.787Z,-0.30
2018-12-14T01:36:12.457Z,-0.20
2018-12-14T01:37:05.438Z,-0.30
2018-12-14T01:38:05.346Z,-0.20
2018-12-14T01:39:04.871Z,-0.20
2018-12-14T01:40:04.997Z,-0.20
2018-12-14T01:41:07.814Z,-0.30
2018-12-14T01:42:05.093Z,-0.20
2018-12-14T01:43:07.991Z,-0.30
2018-12-14T01:44:04.981Z,-0.30
2018-12-14T01:45:07.743Z,-0.30
2018-12-14T01:46:04.731Z,-0.20
2018-12-14T01:47:04.841Z,-0.20
2018-12-14T01:48:05.046Z,-0.20
2018-12-14T01:49:05.205Z,-0.30
2018-12-14T01:50:07.904Z,-0.30
2018-12-14T01:51:04.856Z,-0.30
2018-12-14T01:52:04.963Z,-0.30
2018-12-14T01:53:05.048Z,-0.30
2018-12-14T01:54:05.173Z,-0.30
2018-12-14T01:55:07.826Z,-0.30
2018-12-14T01:56:04.767Z,-0.30
2018-12-14T01:57:07.444Z,-0.30
2018-12-14T01:58:05.480Z,-0.30
2018-12-14T01:59:05.579Z,-0.30
2018-12-14T02:00:04.698Z,-0.30
2018-12-14T02:01:04.852Z,-0.30
2018-12-14T02:02:04.973Z,-0.30
2018-12-14T02:03:07.594Z,-0.30
2018-12-14T02:04:08.110Z,-0.30
2018-12-14T02:05:05.112Z,-0.30
2018-12-14T02:06:05.666Z,-0.40
2018-12-14T02:07:05.012Z,-0.30
2018-12-14T02:08:07.682Z,-0.40
2018-12-14T02:09:04.804Z,-0.40
2018-12-14T02:10:04.922Z,-0.40
2018-12-14T02:11:05.051Z,-0.40
2018-12-14T02:12:11.068Z,-0.40
2018-12-14T02:13:08.115Z,-0.40
2018-12-14T02:14:05.112Z,-0.40
2018-12-14T02:15:05.304Z,-0.40
2018-12-14T02:16:07.917Z,-0.40
2018-12-14T02:17:04.963Z,-0.40
2018-12-14T02:18:05.085Z,-0.40
2018-12-14T02:19:05.210Z,-0.40
2018-12-14T02:20:05.341Z,-0.40
2018-12-14T02:21:10.742Z,-0.40
2018-12-14T02:22:04.826Z,-0.40
2018-12-14T02:23:10.077Z,-0.40
2018-12-14T02:24:05.113Z,-0.40
2018-12-14T02:25:07.800Z,-0.40
2018-12-14T02:26:04.746Z,-0.40
2018-12-14T02:27:04.901Z,-0.40
2018-12-14T02:28:05.036Z,-0.40
2018-12-14T02:29:07.314Z,-0.40
2018-12-14T02:30:05.412Z,-0.40
2018-12-14T02:31:05.591Z,-0.40
2018-12-14T02:32:04.815Z,-0.40
2018-12-14T02:33:07.703Z,-0.40
2018-12-14T02:34:04.847Z,-0.40
2018-12-14T02:35:05.057Z,-0.40
2018-12-14T02:36:07.747Z,-0.40
2018-12-14T02:37:04.950Z,-0.40
2018-12-14T02:38:05.151Z,-0.40
2018-12-14T02:39:05.282Z,-0.40
2018-12-14T02:40:05.351Z,-0.40
2018-12-14T02:41:05.466Z,-0.40
2018-12-14T02:42:05.586Z,-0.40
2018-12-14T02:43:04.789Z,-0.40
2018-12-14T02:44:07.615Z,-0.40
2018-12-14T02:45:05.690Z,-0.50
2018-12-14T02:46:07.313Z,-0.40
2018-12-14T02:47:10.448Z,-0.50
2018-12-14T02:48:08.013Z,-0.50
2018-12-14T02:49:07.527Z,-0.50
2018-12-14T02:50:05.615Z,-0.40
2018-12-14T02:51:04.953Z,-0.40
2018-12-14T02:52:05.265Z,-0.50
2018-12-14T02:53:05.387Z,-0.40
2018-12-14T02:54:05.638Z,-0.40
2018-12-14T02:55:07.505Z,-0.40
2018-12-14T02:56:05.677Z,-0.40
2018-12-14T02:57:04.946Z,-0.40
2018-12-14T02:58:05.199Z,-0.40
2018-12-14T02:59:05.370Z,-0.40
2018-12-14T03:00:05.582Z,-0.40
2018-12-14T03:01:05.259Z,-0.40
2018-12-14T03:02:05.352Z,-0.40
2018-12-14T03:03:13.092Z,-0.40
2018-12-14T03:04:05.081Z,-0.50
2018-12-14T03:05:05.214Z,-0.50
2018-12-14T03:06:07.992Z,-0.40
2018-12-14T03:07:07.474Z,-0.40
2018-12-14T03:08:05.498Z,-0.50
2018-12-14T03:09:05.741Z,-0.40
2018-12-14T03:10:10.119Z,-0.40
2018-12-14T03:11:05.175Z,-0.40
2018-12-14T03:12:05.311Z,-0.40
2018-12-14T03:13:05.675Z,-0.50
2018-12-14T03:14:09.947Z,-0.50
2018-12-14T03:15:05.021Z,-0.50
2018-12-14T03:16:05.212Z,-0.40
2018-12-14T03:17:05.441Z,-0.40
2018-12-14T03:18:18.241Z,-0.50
2018-12-14T03:19:05.183Z,-0.50
2018-12-14T03:20:05.334Z,-0.40
2018-12-14T03:21:05.508Z,-0.40
2018-12-14T03:22:04.736Z,-0.40
2018-12-14T03:23:04.850Z,-0.50
2018-12-14T03:24:07.530Z,-0.40
2018-12-14T03:25:05.528Z,-0.50
2018-12-14T03:26:10.706Z,-0.40
2018-12-14T03:27:07.299Z,-0.40
2018-12-14T03:28:05.274Z,-0.50
2018-12-14T03:29:04.790Z,-0.40
2018-12-14T03:30:07.451Z,-0.50
2018-12-14T03:31:05.519Z,-0.40
2018-12-14T03:32:04.646Z,-0.50
2018-12-14T03:33:07.511Z,-0.50
2018-12-14T03:34:05.753Z,-0.50
2018-12-14T03:35:04.907Z,-0.50
2018-12-14T03:36:05.181Z,-0.40
2018-12-14T03:37:05.477Z,-0.50
2018-12-14T03:38:05.633Z,-0.50
2018-12-14T03:39:07.317Z,-0.50
2018-12-14T03:40:05.320Z,-0.50
2018-12-14T03:41:08.035Z,-0.50
2018-12-14T03:42:07.625Z,-0.40
2018-12-14T03:43:13.183Z,-0.50
2018-12-14T03:44:05.186Z,-0.40
2018-12-14T03:45:05.309Z,-0.40
2018-12-14T03:46:05.567Z,-0.40
2018-12-14T03:47:04.699Z,-0.40
2018-12-14T03:48:05.194Z,-0.50
2018-12-14T03:49:10.449Z,-0.50
2018-12-14T03:50:08.099Z,-0.40
2018-12-14T03:51:10.112Z,-0.50
2018-12-14T03:52:05.274Z,-0.50
2018-12-14T03:53:04.825Z,-0.50
2018-12-14T03:54:05.065Z,-0.50
2018-12-14T03:55:07.797Z,-0.40
2018-12-14T03:56:04.844Z,-0.40
2018-12-14T03:57:07.547Z,-0.40
2018-12-14T03:58:05.567Z,-0.40
2018-12-14T03:59:07.326Z,-0.40
2018-12-14T04:00:05.295Z,-0.40
2018-12-14T04:01:05.632Z,-0.40
2018-12-14T04:02:04.842Z,-0.40
2018-12-14T04:03:05.074Z,-0.40
2018-12-14T04:04:05.235Z,-0.40
2018-12-14T04:05:07.874Z,-0.40
2018-12-14T04:06:07.431Z,-0.40
2018-12-14T04:07:05.524Z,-0.40
2018-12-14T04:08:04.827Z,-0.40
2018-12-14T04:09:05.042Z,-0.40
2018-12-14T04:10:05.343Z,-0.40
2018-12-14T04:11:05.661Z,-0.40
2018-12-14T04:12:04.926Z,-0.40
2018-12-14T04:13:05.095Z,-0.40
2018-12-14T04:14:07.731Z,-0.40
2018-12-14T04:15:04.673Z,-0.40
2018-12-14T04:16:04.989Z,-0.40
2018-12-14T04:17:07.755Z,-0.40
2018-12-14T04:18:04.876Z,-0.40
2018-12-14T04:19:07.592Z,-0.40
2018-12-14T04:20:05.504Z,-0.40
2018-12-14T04:21:05.664Z,-0.40
2018-12-14T04:22:07.490Z,-0.40
2018-12-14T04:23:08.038Z,-0.40
2018-12-14T04:24:05.167Z,-0.40
2018-12-14T04:25:05.435Z,-0.40
2018-12-14T04:26:05.647Z,-0.40
2018-12-14T04:27:04.823Z,-0.40
2018-12-14T04:28:07.514Z,-0.40
2018-12-14T04:29:05.494Z,-0.40
2018-12-14T04:30:05.676Z,-0.40
2018-12-14T04:31:07.517Z,-0.40
2018-12-14T04:32:05.466Z,-0.40
2018-12-14T04:33:05.706Z,-0.40
2018-12-14T04:34:04.826Z,-0.30
2018-12-14T04:35:04.927Z,-0.40
2018-12-14T04:36:05.045Z,-0.40
2018-12-14T04:37:08.148Z,-0.40
2018-12-14T04:38:05.189Z,-0.40
2018-12-14T04:39:07.918Z,-0.40
2018-12-14T04:40:04.863Z,-0.40
2018-12-14T04:41:04.952Z,-0.40
2018-12-14T04:42:05.287Z,-0.40
2018-12-14T04:43:08.015Z,-0.30
2018-12-14T04:44:05.067Z,-0.40
2018-12-14T04:45:07.895Z,-0.40
2018-12-14T04:46:04.887Z,-0.40
2018-12-14T04:47:07.663Z,-0.40
2018-12-14T04:48:07.281Z,-0.40
2018-12-14T04:49:05.332Z,-0.40
2018-12-14T04:50:05.540Z,-0.40
2018-12-14T04:51:07.163Z,-0.40
2018-12-14T04:52:07.614Z,-0.40
2018-12-14T04:53:05.633Z,-0.40
2018-12-14T04:54:09.920Z,-0.40
2018-12-14T04:55:04.935Z,-0.40
2018-12-14T04:56:05.229Z,-0.40
2018-12-14T04:57:05.472Z,-0.40
2018-12-14T04:58:05.575Z,-0.40
2018-12-14T04:59:07.194Z,-0.40
2018-12-14T05:00:05.192Z,-0.40
2018-12-14T05:01:07.895Z,-0.40
2018-12-14T05:02:04.949Z,-0.40
2018-12-14T05:03:05.191Z,-0.40
2018-12-14T05:04:05.398Z,-0.40
2018-12-14T05:05:08.071Z,-0.40
2018-12-14T05:06:05.085Z,-0.40
2018-12-14T05:07:05.168Z,-0.40
2018-12-14T05:08:05.339Z,-0.40
2018-12-14T05:09:05.484Z,-0.40
2018-12-14T05:10:05.646Z,-0.40
2018-12-14T05:11:04.755Z,-0.40
2018-12-14T05:12:07.508Z,-0.40
2018-12-14T05:13:05.523Z,-0.40
2018-12-14T05:14:04.653Z,-0.40
2018-12-14T05:15:07.558Z,-0.40
2018-12-14T05:16:05.589Z,-0.40
2018-12-14T05:17:07.361Z,-0.50
2018-12-14T05:18:05.322Z,-0.50
2018-12-14T05:19:08.105Z,-0.50
2018-12-14T05:20:05.070Z,-0.50
2018-12-14T05:21:05.277Z,-0.50
2018-12-14T05:22:05.413Z,-0.50
2018-12-14T05:23:08.268Z,-0.50
2018-12-14T05:24:05.257Z,-0.50
2018-12-14T05:25:08.444Z,-0.50
2018-12-14T05:26:05.669Z,-0.50
2018-12-14T05:27:05.025Z,-0.50
2018-12-14T05:28:05.228Z,-0.50
2018-12-14T05:29:04.883Z,-0.50
2018-12-14T05:30:04.975Z,-0.50
2018-12-14T05:31:05.132Z,-0.60
2018-12-14T05:32:05.216Z,-0.60
2018-12-14T05:33:07.888Z,-0.60
2018-12-14T05:34:07.393Z,-0.60
2018-12-14T05:35:07.817Z,-0.60
2018-12-14T05:36:09.845Z,-0.60
2018-12-14T05:37:04.878Z,-0.60
2018-12-14T05:38:05.189Z,-0.60
2018-12-14T05:39:05.432Z,-0.60
2018-12-14T05:40:05.687Z,-0.60
2018-12-14T05:41:07.366Z,-0.60
2018-12-14T05:42:05.411Z,-0.60
2018-12-14T05:43:08.112Z,-0.60
2018-12-14T05:44:07.657Z,-0.60
2018-12-14T05:45:08.160Z,-0.60
2018-12-14T05:46:07.682Z,-0.60
2018-12-14T05:47:05.687Z,-0.60
2018-12-14T05:48:09.929Z,-0.60
2018-12-14T05:49:07.376Z,-0.60
2018-12-14T05:50:05.485Z,-0.60
2018-12-14T05:51:04.722Z,-0.60
2018-12-14T05:52:04.868Z,-0.60
2018-12-14T05:53:07.577Z,-0.60
2018-12-14T05:54:08.239Z,-0.60
2018-12-14T05:55:05.419Z,-0.60
2018-12-14T05:56:08.166Z,-0.60
2018-12-14T05:57:07.646Z,-0.60
2018-12-14T05:58:08.265Z,-0.60
2018-12-14T05:59:05.380Z,-0.60
2018-12-14T06:00:05.573Z,-0.60
2018-12-14T06:01:07.238Z,-0.60
2018-12-14T06:02:05.215Z,-0.60
2018-12-14T06:03:05.465Z,-0.60
2018-12-14T06:04:10.733Z,-0.60
2018-12-14T06:05:04.908Z,-0.60
2018-12-14T06:06:05.128Z,-0.70
2018-12-14T06:07:05.389Z,-0.60
2018-12-14T06:08:05.568Z,-0.70
2018-12-14T06:09:04.707Z,-0.70
2018-12-14T06:10:07.349Z,-0.60
2018-12-14T06:11:05.430Z,-0.60
2018-12-14T06:12:08.146Z,-0.70
2018-12-14T06:13:08.974Z,-0.70
2018-12-14T06:14:05.363Z,-0.70
2018-12-14T06:15:08.340Z,-0.70
2018-12-14T06:16:07.986Z,-0.70
2018-12-14T06:17:07.514Z,-0.70
2018-12-14T06:18:05.555Z,-0.70
2018-12-14T06:19:07.385Z,-0.70
2018-12-14T06:20:05.505Z,-0.70
2018-12-14T06:21:08.199Z,-0.60
2018-12-14T06:22:07.836Z,-0.70
2018-12-14T06:23:04.852Z,-0.70
2018-12-14T06:24:07.522Z,-0.70
2018-12-14T06:25:05.524Z,-0.70
2018-12-14T06:26:08.319Z,-0.70
2018-12-14T06:27:05.564Z,-0.70
2018-12-14T06:28:04.805Z,-0.70
2018-12-14T06:29:05.029Z,-0.70
2018-12-14T06:30:05.301Z,-0.70
2018-12-14T06:31:08.077Z,-0.70
2018-12-14T06:32:05.044Z,-0.70
2018-12-14T06:33:05.134Z,-0.70
2018-12-14T06:34:05.348Z,-0.70
2018-12-14T06:35:08.068Z,-0.70
2018-12-14T06:36:05.135Z,-0.70
2018-12-14T06:37:05.208Z,-0.70
2018-12-14T06:38:07.803Z,-0.70
2018-12-14T06:39:07.312Z,-0.70
2018-12-14T06:40:07.832Z,-0.70
2018-12-14T06:41:07.478Z,-0.70
2018-12-14T06:42:08.121Z,-0.70
2018-12-14T06:43:05.256Z,-0.60
2018-12-14T06:44:05.438Z,-0.70
2018-12-14T06:45:05.606Z,-0.70
2018-12-14T06:46:09.802Z,-0.70
2018-12-14T06:47:07.327Z,-0.70
2018-12-14T06:48:07.931Z,-0.70
2018-12-14T06:49:07.531Z,-0.70
2018-12-14T06:50:08.123Z,-0.70
2018-12-14T06:51:05.165Z,-0.70
2018-12-14T06:52:05.415Z,-0.70
2018-12-14T06:53:05.596Z,-0.70
2018-12-14T06:54:04.738Z,-0.70
2018-12-14T06:55:07.374Z,-0.70
2018-12-14T06:56:07.997Z,-0.70
2018-12-14T06:57:07.515Z,-0.70
2018-12-14T06:58:05.461Z,-0.70
2018-12-14T06:59:07.329Z,-0.70
2018-12-14T07:00:07.853Z,-0.70
2018-12-14T07:01:04.784Z,-0.70
2018-12-14T07:02:04.969Z,-0.70
2018-12-14T07:03:05.161Z,-0.70
2018-12-14T07:04:07.850Z,-0.70
2018-12-14T07:05:07.302Z,-0.70
2018-12-14T07:06:05.337Z,-0.80
2018-12-14T07:07:05.522Z,-0.80
2018-12-14T07:08:04.757Z,-0.80
2018-12-14T07:09:04.939Z,-0.80
2018-12-14T07:10:07.639Z,-0.80
2018-12-14T07:11:05.665Z,-0.80
2018-12-14T07:12:04.830Z,-0.80
2018-12-14T07:13:07.577Z,-0.80
2018-12-14T07:14:05.888Z,-0.80
2018-12-14T07:15:05.048Z,-0.80
2018-12-14T07:16:05.247Z,-0.80
2018-12-14T07:17:07.890Z,-0.80
2018-12-14T07:18:04.833Z,-0.80
2018-12-14T07:19:04.988Z,-0.80
2018-12-14T07:20:05.121Z,-0.80
2018-12-14T07:21:05.221Z,-0.80
2018-12-14T07:22:05.443Z,-0.80
2018-12-14T07:23:05.571Z,-0.80
2018-12-14T07:24:04.680Z,-0.80
2018-12-14T07:25:07.492Z,-0.80
2018-12-14T07:26:05.448Z,-0.80
2018-12-14T07:27:05.562Z,-0.80
2018-12-14T07:28:04.741Z,-0.80
2018-12-14T07:29:05.392Z,-0.80
2018-12-14T07:30:08.017Z,-0.80
2018-12-14T07:31:04.999Z,-0.80
2018-12-14T07:32:07.764Z,-0.80
2018-12-14T07:33:04.915Z,-0.80
2018-12-14T07:34:05.113Z,-0.80
2018-12-14T07:35:05.252Z,-0.80
2018-12-14T07:36:05.309Z,-0.80
2018-12-14T07:37:05.593Z,-0.80
2018-12-14T07:38:04.770Z,-0.80
2018-12-14T07:39:07.478Z,-0.80
2018-12-14T07:40:05.458Z,-0.80
2018-12-14T07:41:08.200Z,-0.80
2018-12-14T07:42:05.187Z,-0.80
2018-12-14T07:43:05.366Z,-0.80
2018-12-14T07:44:05.494Z,-0.90
2018-12-14T07:45:05.612Z,-0.80
2018-12-14T07:46:07.380Z,-0.80
2018-12-14T07:47:11.363Z,-0.80
2018-12-14T07:48:04.766Z,-0.80
2018-12-14T07:49:07.575Z,-0.80
2018-12-14T07:50:05.624Z,-0.80
2018-12-14T07:51:04.854Z,-0.80
2018-12-14T07:52:05.443Z,-0.80
2018-12-14T07:53:09.828Z,-0.80
2018-12-14T07:54:07.500Z,-0.80
2018-12-14T07:55:05.683Z,-0.80
2018-12-14T07:56:04.774Z,-0.80
2018-12-14T07:57:04.987Z,-0.80
2018-12-14T07:58:05.124Z,-0.80
2018-12-14T07:59:05.173Z,-0.80
2018-12-14T08:00:07.994Z,-0.80
2018-12-14T08:01:04.988Z,-0.90
2018-12-14T08:02:08.221Z,-0.80
2018-12-14T08:03:07.726Z,-0.80
2018-12-14T08:04:04.729Z,-0.90
2018-12-14T08:05:07.365Z,-0.80
2018-12-14T08:06:10.343Z,-0.80
2018-12-14T08:07:05.286Z,-0.80
2018-12-14T08:08:08.118Z,-0.80
2018-12-14T08:09:07.751Z,-0.80
2018-12-14T08:10:04.781Z,-0.80
2018-12-14T08:11:09.919Z,-0.80
2018-12-14T08:12:07.372Z,-0.80
2018-12-14T08:13:05.443Z,-0.80
2018-12-14T08:14:05.541Z,-0.80
2018-12-14T08:15:11.080Z,-0.80
2018-12-14T08:16:07.189Z,-0.80
2018-12-14T08:17:05.346Z,-0.80
2018-12-14T08:18:08.009Z,-0.80
2018-12-14T08:19:06.355Z,-0.80
2018-12-14T08:20:05.665Z,-0.80
2018-12-14T08:21:04.818Z,-0.80
2018-12-14T08:22:05.074Z,-0.80
2018-12-14T08:23:07.886Z,-0.80
2018-12-14T08:24:05.000Z,-0.80
2018-12-14T08:25:05.146Z,-0.70
2018-12-14T08:26:05.371Z,-0.70
2018-12-14T08:27:05.517Z,-0.70
2018-12-14T08:28:04.836Z,-0.70
2018-12-14T08:29:05.067Z,-0.70
2018-12-14T08:30:05.149Z,-0.70
2018-12-14T08:31:05.468Z,-0.70
2018-12-14T08:32:08.355Z,-0.70
2018-12-14T08:33:07.902Z,-0.70
2018-12-14T08:34:04.866Z,-0.70
2018-12-14T08:35:04.898Z,-0.70
2018-12-14T08:36:05.472Z,-0.70
2018-12-14T08:37:05.674Z,-0.70
2018-12-14T08:38:04.837Z,-0.70
2018-12-14T08:39:04.966Z,-0.70
2018-12-14T08:40:07.660Z,-0.70
2018-12-14T08:41:04.833Z,-0.70
2018-12-14T08:42:05.062Z,-0.70
2018-12-14T08:43:05.197Z,-0.60
2018-12-14T08:44:07.808Z,-0.60
2018-12-14T08:45:04.807Z,-0.70
2018-12-14T08:46:04.950Z,-0.70
2018-12-14T08:47:05.214Z,-0.60
2018-12-14T08:48:05.384Z,-0.60
2018-12-14T08:49:05.457Z,-0.60
2018-12-14T08:50:05.570Z,-0.60
2018-12-14T08:51:05.671Z,-0.60
2018-12-14T08:52:04.781Z,-0.60
2018-12-14T08:53:07.544Z,-0.50
2018-12-14T08:54:05.546Z,-0.50
2018-12-14T08:55:05.705Z,-0.60
2018-12-14T08:56:07.378Z,-0.60
2018-12-14T08:57:05.517Z,-0.50
2018-12-14T08:58:09.406Z,-0.50
2018-12-14T08:59:05.344Z,-0.50
2018-12-14T09:00:08.019Z,-0.50
2018-12-14T09:01:07.751Z,-0.50
2018-12-14T09:02:07.322Z,-0.50
2018-12-14T09:03:07.921Z,-0.50
2018-12-14T09:04:05.091Z,-0.50
2018-12-14T09:05:05.305Z,-0.50
2018-12-14T09:06:05.523Z,-0.50
2018-12-14T09:07:05.625Z,-0.50
2018-12-14T09:08:04.783Z,-0.50
2018-12-14T09:09:04.878Z,-0.50
2018-12-14T09:10:07.486Z,-0.50
2018-12-14T09:11:05.602Z,-0.50
2018-12-14T09:12:04.885Z,-0.50
2018-12-14T09:13:05.074Z,-0.50
2018-12-14T09:14:07.783Z,-0.40
2018-12-14T09:15:04.927Z,-0.50
2018-12-14T09:16:07.742Z,-0.40
2018-12-14T09:17:04.794Z,-0.40
2018-12-14T09:18:05.556Z,-0.40
2018-12-14T09:19:05.667Z,-0.40
2018-12-14T09:20:04.749Z,-0.40
2018-12-14T09:21:07.378Z,-0.40
2018-12-14T09:22:08.018Z,-0.40
2018-12-14T09:23:07.510Z,-0.30
2018-12-14T09:24:05.484Z,-0.30
2018-12-14T09:25:05.538Z,-0.30
2018-12-14T09:26:08.267Z,-0.30
2018-12-14T09:27:05.283Z,-0.30
2018-12-14T09:28:05.418Z,-0.30
2018-12-14T09:29:04.892Z,-0.30
2018-12-14T09:30:05.033Z,-0.30
2018-12-14T09:31:05.595Z,-0.30
2018-12-14T09:32:04.785Z,-0.30
2018-12-14T09:33:07.520Z,-0.30
2018-12-14T09:34:05.560Z,-0.30
2018-12-14T09:35:04.818Z,-0.30
2018-12-14T09:36:04.953Z,-0.30
2018-12-14T09:37:05.154Z,-0.20
2018-12-14T09:38:05.296Z,-0.20
2018-12-14T09:39:05.403Z,-0.20
2018-12-14T09:40:05.497Z,-0.20
2018-12-14T09:41:08.099Z,-0.20
2018-12-14T09:42:05.059Z,-0.20
2018-12-14T09:43:05.226Z,-0.20
2018-12-14T09:44:05.548Z,-0.20
2018-12-14T09:45:04.872Z,-0.10
2018-12-14T09:46:05.083Z,-0.20
2018-12-14T09:47:07.817Z,-0.10
2018-12-14T09:48:04.929Z,-0.20
2018-12-14T09:49:07.688Z,-0.10
2018-12-14T09:50:07.305Z,-0.10
2018-12-14T09:51:05.312Z,-0.10
2018-12-14T09:52:10.074Z,-0.10
2018-12-14T09:53:04.990Z,-0.10
2018-12-14T09:54:05.090Z,-0.10
2018-12-14T09:55:07.737Z,-0.10
2018-12-14T09:56:07.285Z,-0.10
2018-12-14T09:57:05.296Z,-0.10
2018-12-14T09:58:05.404Z,0.00
2018-12-14T09:59:05.585Z,0.00
2018-12-14T10:00:07.407Z,0.00
2018-12-14T10:01:07.930Z,0.00
2018-12-14T10:02:07.443Z,0.00
2018-12-14T10:03:05.587Z,0.00
2018-12-14T10:04:04.773Z,0.00
2018-12-14T10:05:07.499Z,0.00
2018-12-14T10:06:05.589Z,0.00
2018-12-14T10:07:04.761Z,0.00
2018-12-14T10:08:04.910Z,0.00
2018-12-14T10:09:05.101Z,0.00
2018-12-14T10:10:05.212Z,0.00
2018-12-14T10:11:05.348Z,0.00
2018-12-14T10:12:05.456Z,0.00
2018-12-14T10:13:05.565Z,0.00
2018-12-14T10:14:07.218Z,0.00
2018-12-14T10:15:05.281Z,0.00
2018-12-14T10:16:07.880Z,0.10
2018-12-14T10:17:07.354Z,0.10
2018-12-14T10:18:05.504Z,0.10
2018-12-14T10:19:04.745Z,0.10
2018-12-14T10:20:04.827Z,0.10
2018-12-14T10:21:07.486Z,0.10
2018-12-14T10:22:10.555Z,0.10
2018-12-14T10:23:05.542Z,0.10
2018-12-14T10:24:04.887Z,0.20
2018-12-14T10:25:05.107Z,0.10
2018-12-14T10:26:05.273Z,0.10
2018-12-14T10:27:05.549Z,0.10
2018-12-14T10:28:04.704Z,0.10
2018-12-14T10:29:05.383Z,0.10
2018-12-14T10:30:08.085Z,0.20
2018-12-14T10:31:05.126Z,0.10
2018-12-14T10:32:07.839Z,0.20
2018-12-14T10:33:04.791Z,0.20
2018-12-14T10:34:05.039Z,0.20
2018-12-14T10:35:05.154Z,0.20
2018-12-14T10:36:07.932Z,0.20
2018-12-14T10:37:04.911Z,0.20
2018-12-14T10:38:07.547Z,0.20
2018-12-14T10:39:08.092Z,0.20
2018-12-14T10:40:07.635Z,0.20
2018-12-14T10:41:05.724Z,0.20
2018-12-14T10:42:04.991Z,0.20
2018-12-14T10:43:05.159Z,0.20
2018-12-14T10:44:07.491Z,0.20
2018-12-14T10:45:07.454Z,0.20
2018-12-14T10:46:05.569Z,0.30
2018-12-14T10:47:04.885Z,0.30
2018-12-14T10:48:05.161Z,0.30
2018-12-14T10:49:08.042Z,0.30
2018-12-14T10:50:07.635Z,0.30
2018-12-14T10:51:04.736Z,0.20
2018-12-14T10:52:04.895Z,0.30
2018-12-14T10:53:04.996Z,0.30
2018-12-14T10:54:05.215Z,0.30
2018-12-14T10:55:05.324Z,0.30
2018-12-14T10:56:05.482Z,0.30
2018-12-14T10:57:05.542Z,0.30
2018-12-14T10:58:10.717Z,0.30
2018-12-14T10:59:05.692Z,0.40
2018-12-14T11:00:04.839Z,0.40
2018-12-14T11:01:04.972Z,0.40
2018-12-14T11:02:05.124Z,0.40
2018-12-14T11:03:07.710Z,0.40
2018-12-14T11:04:04.706Z,0.40
2018-12-14T11:05:04.878Z,0.40
2018-12-14T11:06:05.116Z,0.40
2018-12-14T11:07:10.307Z,0.40
2018-12-14T11:08:05.293Z,0.40
2018-12-14T11:09:07.954Z,0.40
2018-12-14T11:10:07.585Z,0.40
2018-12-14T11:11:05.744Z,0.40
2018-12-14T11:12:05.006Z,0.40
2018-12-14T11:13:05.203Z,0.40
2018-12-14T11:14:13.728Z,0.40
2018-12-14T11:15:05.033Z,0.40
2018-12-14T11:16:05.286Z,0.40
2018-12-14T11:17:05.530Z,0.40
2018-12-14T11:18:08.184Z,0.40
2018-12-14T11:19:05.189Z,0.40
2018-12-14T11:20:08.003Z,0.50
2018-12-14T11:21:05.022Z,0.50
2018-12-14T11:22:05.101Z,0.50
2018-12-14T11:23:05.210Z,0.50
2018-12-14T11:24:05.478Z,0.50
2018-12-14T11:25:05.669Z,0.50
2018-12-14T11:26:07.330Z,0.50
2018-12-14T11:27:05.347Z,0.50
2018-12-14T11:28:05.467Z,0.50
2018-12-14T11:29:07.520Z,0.50
2018-12-14T11:30:08.017Z,0.50
2018-12-14T11:31:07.509Z,0.50
2018-12-14T11:32:08.040Z,0.60
2018-12-14T11:33:05.085Z,0.50
2018-12-14T11:34:05.244Z,0.60
2018-12-14T11:35:05.322Z,0.60
2018-12-14T11:36:05.462Z,0.60
2018-12-14T11:37:05.673Z,0.60
2018-12-14T11:38:04.844Z,0.60
2018-12-14T11:39:10.054Z,0.60
2018-12-14T11:40:04.968Z,0.60
2018-12-14T11:41:05.216Z,0.60
2018-12-14T11:42:05.355Z,0.60
2018-12-14T11:43:05.628Z,0.60
2018-12-14T11:44:04.775Z,0.60
2018-12-14T11:45:04.859Z,0.60
2018-12-14T11:46:04.953Z,0.60
2018-12-14T11:47:07.673Z,0.60
2018-12-14T11:48:05.695Z,0.60
2018-12-14T11:49:07.876Z,0.60
2018-12-14T11:50:04.966Z,0.60
2018-12-14T11:51:05.272Z,0.60
2018-12-14T11:52:05.615Z,0.60
2018-12-14T11:53:07.394Z,0.60
2018-12-14T11:54:05.391Z,0.60
2018-12-14T11:55:05.488Z,0.60
2018-12-14T11:56:05.624Z,0.60
2018-12-14T11:57:04.808Z,0.60
2018-12-14T11:58:04.928Z,0.60
2018-12-14T11:59:05.069Z,0.60
2018-12-14T12:00:07.730Z,0.60
2018-12-14T12:01:04.776Z,0.60
2018-12-14T12:02:04.911Z,0.60
2018-12-14T12:03:05.104Z,0.60
2018-12-14T12:04:05.136Z,0.60
2018-12-14T12:05:07.732Z,0.60
2018-12-14T12:06:04.777Z,0.50
2018-12-14T12:07:05.226Z,0.60
2018-12-14T12:08:07.950Z,0.60
2018-12-14T12:09:05.002Z,0.50
2018-12-14T12:10:07.712Z,0.50
2018-12-14T12:11:04.869Z,0.50
2018-12-14T12:12:10.247Z,0.50
2018-12-14T12:13:07.957Z,0.60
2018-12-14T12:14:05.027Z,0.60
2018-12-14T12:15:07.656Z,0.60
2018-12-14T12:16:05.779Z,0.60
2018-12-14T12:17:05.067Z,0.60
2018-12-14T12:18:07.842Z,0.60
2018-12-14T12:19:04.923Z,0.60
2018-12-14T12:20:05.096Z,0.60
2018-12-14T12:21:07.744Z,0.60
2018-12-14T12:22:04.670Z,0.60
2018-12-14T12:23:07.665Z,0.60
2018-12-14T12:24:05.626Z,0.60
2018-12-14T12:25:04.827Z,0.60
2018-12-14T12:26:07.492Z,0.50
2018-12-14T12:27:05.461Z,0.60
2018-12-14T12:28:05.651Z,0.60
2018-12-14T12:29:05.055Z,0.50
2018-12-14T12:30:05.176Z,0.60
2018-12-14T12:31:05.374Z,0.50
2018-12-14T12:32:05.512Z,0.60
2018-12-14T12:33:08.140Z,0.60
2018-12-14T12:34:05.232Z,0.50
2018-12-14T12:35:08.144Z,0.50
2018-12-14T12:36:05.323Z,0.60
2018-12-14T12:37:05.499Z,0.60
2018-12-14T12:38:05.649Z,0.50
2018-12-14T12:39:07.327Z,0.60
2018-12-14T12:40:05.609Z,0.60
2018-12-14T12:41:04.756Z,0.60
2018-12-14T12:42:04.973Z,0.50
2018-12-14T12:43:05.201Z,0.60
2018-12-14T12:44:05.386Z,0.60
2018-12-14T12:45:05.561Z,0.60
2018-12-14T12:46:04.714Z,0.50
2018-12-14T12:47:04.889Z,0.60
2018-12-14T12:48:07.729Z,0.60
2018-12-14T12:49:04.794Z,0.50
2018-12-14T12:50:05.361Z,0.60
2018-12-14T12:51:08.038Z,0.60
2018-12-14T12:52:05.189Z,0.50
2018-12-14T12:53:05.481Z,0.60
2018-12-14T12:54:05.641Z,0.50
2018-12-14T12:55:04.771Z,0.60
2018-12-14T12:56:07.545Z,0.60
2018-12-14T12:57:05.581Z,0.50
2018-12-14T12:58:07.321Z,0.50